createdAt,value
2022-10-28T00:01:06.572Z,100383.94
2022-10-28T00:03:38.124Z,100382.59
2022-10-28T00:06:07.035Z,100376.69
2022-10-28T00:08:35.507Z,100380.44
2022-10-28T00:11:05.802Z,100381.50
2022-10-28T00:13:34.184Z,100379.34
2022-10-28T00:16:08.583Z,100393.88
2022-10-28T00:18:36.744Z,100389.84
2022-10-28T00:21:06.766Z,100389.56
2022-10-28T00:23:34.823Z,100383.63
2022-10-28T00:26:07.753Z,100383.63
2022-10-28T00:28:35.898Z,100392.53
2022-10-28T00:31:10.009Z,100392.00
2022-10-28T00:33:39.050Z,100383.94
2022-10-28T00:36:16.051Z,100387.66
2022-10-28T00:38:44.954Z,100391.44
2022-10-28T00:41:15.780Z,100387.41
2022-10-28T00:43:46.311Z,100389.28
2022-10-28T00:46:21.271Z,100386.03
2022-10-28T00:48:54.343Z,100386.56
2022-10-28T00:51:24.285Z,100391.66
2022-10-28T00:53:54.326Z,100385.72
2022-10-28T00:56:24.327Z,100377.13
2022-10-28T00:58:56.135Z,100387.34
2022-10-28T01:01:25.586Z,100379.56
2022-10-28T01:03:55.003Z,100378.75
2022-10-28T01:06:24.323Z,100382.25
2022-10-28T01:08:56.075Z,100375.78
2022-10-28T01:11:56.076Z,100381.16
2022-10-28T01:14:40.833Z,100374.97
2022-10-28T01:17:25.413Z,100374.16
2022-10-28T01:20:30.579Z,100381.66
2022-10-28T01:23:06.456Z,100376.28
2022-10-28T01:26:06.314Z,100378.66
2022-10-28T01:28:58.855Z,100376.50
2022-10-28T01:31:37.265Z,100372.47
2022-10-28T01:34:12.775Z,100371.94
2022-10-28T01:36:50.690Z,100363.88
2022-10-28T01:39:29.981Z,100374.06
2022-10-28T01:42:09.723Z,100367.91
2022-10-28T01:44:44.736Z,100372.47
2022-10-28T01:47:15.926Z,100372.47
2022-10-28T01:49:50.507Z,100363.84
2022-10-28T01:52:23.605Z,100364.91
2022-10-28T01:54:57.065Z,100366.50
2022-10-28T01:57:27.347Z,100375.66
2022-10-28T01:59:56.048Z,100363.53
2022-10-28T02:02:25.971Z,100361.09
2022-10-28T02:05:05.222Z,100359.22
2022-10-28T02:07:33.459Z,100362.16
2022-10-28T02:10:10.027Z,100362.16
2022-10-28T02:12:39.532Z,100368.06
2022-10-28T02:15:30.720Z,100372.38
2022-10-28T02:18:13.647Z,100366.16
2022-10-28T02:20:49.958Z,100373.69
2022-10-28T02:23:25.647Z,100371.53
2022-10-28T02:25:59.350Z,100371.78
2022-10-28T02:28:38.263Z,100369.09
2022-10-28T02:31:12.498Z,100374.75
2022-10-28T02:33:44.777Z,100364.28
2022-10-28T02:36:16.197Z,100365.88
2022-10-28T02:38:50.267Z,100371.81
2022-10-28T02:41:23.728Z,100368.06
2022-10-28T02:43:56.590Z,100370.19
2022-10-28T02:46:28.491Z,100368.56
2022-10-28T02:49:01.497Z,100359.44
2022-10-28T02:51:34.149Z,100367.47
2022-10-28T02:54:08.377Z,100363.88
2022-10-28T02:56:43.907Z,100367.84
2022-10-28T02:59:13.554Z,100363.53
2022-10-28T03:01:41.793Z,100359.16
2022-10-28T03:04:11.290Z,100368.53
2022-10-28T03:06:39.360Z,100367.72
2022-10-28T03:09:07.337Z,100370.94
2022-10-28T03:11:35.326Z,100369.66
2022-10-28T03:14:03.439Z,100368.88
2022-10-28T03:16:31.406Z,100365.41
2022-10-28T03:18:59.759Z,100366.53
2022-10-28T03:21:29.269Z,100363.56
2022-10-28T03:23:57.416Z,100362.50
2022-10-28T03:26:25.369Z,100362.75
2022-10-28T03:28:53.565Z,100364.09
2022-10-28T03:31:21.587Z,100356.00
2022-10-28T03:33:49.606Z,100366.41
2022-10-28T03:36:17.609Z,100362.63
2022-10-28T03:38:46.999Z,100366.88
2022-10-28T03:41:15.039Z,100365.53
2022-10-28T03:43:43.009Z,100368.44
2022-10-28T03:46:11.093Z,100367.56
2022-10-28T03:48:39.117Z,100364.47
2022-10-28T03:51:07.702Z,100368.53
2022-10-28T03:53:35.685Z,100370.13
2022-10-28T03:56:05.563Z,100358.59
2022-10-28T03:58:36.132Z,100360.75
2022-10-28T04:01:06.830Z,100360.47
2022-10-28T04:03:34.870Z,100365.03
2022-10-28T04:06:02.912Z,100370.41
2022-10-28T04:08:30.928Z,100373.09
2022-10-28T04:10:59.010Z,100364.25
2022-10-28T04:13:28.443Z,100375.78
2022-10-28T04:15:56.687Z,100361.84
2022-10-28T04:18:24.673Z,100369.66
2022-10-28T04:20:52.701Z,100369.16
2022-10-28T04:23:20.819Z,100367.03
2022-10-28T04:25:52.556Z,100365.13
2022-10-28T04:28:20.702Z,100358.69
2022-10-28T04:30:50.155Z,100362.19
2022-10-28T04:33:18.226Z,100363.25
2022-10-28T04:35:46.559Z,100361.66
2022-10-28T04:38:15.449Z,100356.28
2022-10-28T04:40:43.600Z,100361.09
2022-10-28T04:43:11.905Z,100360.53
2022-10-28T04:45:40.162Z,100359.69
2022-10-28T04:48:10.581Z,100362.06
2022-10-28T04:50:38.895Z,100370.38
2022-10-28T04:53:06.839Z,100365.28
2022-10-28T04:55:34.852Z,100368.19
2022-10-28T04:58:02.980Z,100371.97
2022-10-28T05:00:31.470Z,100369.00
2022-10-28T05:03:02.989Z,100366.88
2022-10-28T05:05:32.676Z,100377.66
2022-10-28T05:08:00.661Z,100372.34
2022-10-28T05:10:28.647Z,100371.03
2022-10-28T05:12:56.672Z,100382.34
2022-10-28T05:15:26.537Z,100377.81
2022-10-28T05:17:54.971Z,100375.19
2022-10-28T05:20:23.343Z,100374.69
2022-10-28T05:22:55.158Z,100375.78
2022-10-28T05:25:24.185Z,100382.00
2022-10-28T05:27:52.251Z,100381.25
2022-10-28T05:30:20.786Z,100391.47
2022-10-28T05:32:51.500Z,100386.38
2022-10-28T05:35:22.457Z,100390.72
2022-10-28T05:37:50.463Z,100392.09
2022-10-28T05:40:19.836Z,100398.88
2022-10-28T05:42:47.785Z,100391.13
2022-10-28T05:45:16.444Z,100385.81
2022-10-28T05:47:45.351Z,100390.41
2022-10-28T05:50:14.070Z,100385.09
2022-10-28T05:52:46.103Z,100400.41
2022-10-28T05:55:14.067Z,100402.34
2022-10-28T05:57:43.451Z,100404.50
2022-10-28T06:00:13.137Z,100406.41
2022-10-28T06:02:41.287Z,100406.94
2022-10-28T06:05:09.940Z,100410.22
2022-10-28T06:07:38.578Z,100411.84
2022-10-28T06:10:08.573Z,100419.97
2022-10-28T06:12:35.452Z,100418.91
2022-10-28T06:15:05.727Z,100420.84
2022-10-28T06:17:33.757Z,100416.78
2022-10-28T06:20:01.894Z,100413.03
2022-10-28T06:22:30.002Z,100425.97
2022-10-28T06:24:58.065Z,100427.84
2022-10-28T06:27:26.162Z,100432.97
2022-10-28T06:29:54.190Z,100429.19
2022-10-28T06:32:23.708Z,100434.03
2022-10-28T06:34:51.801Z,100443.72
2022-10-28T06:37:19.825Z,100435.91
2022-10-28T06:39:51.332Z,100427.81
2022-10-28T06:42:19.975Z,100435.31
2022-10-28T06:44:48.096Z,100441.75
2022-10-28T06:47:17.659Z,100444.66
2022-10-28T06:49:47.166Z,100439.22
2022-10-28T06:52:15.142Z,100448.34
2022-10-28T06:54:43.684Z,100445.06
2022-10-28T06:57:11.874Z,100448.56
2022-10-28T06:59:40.023Z,100444.53
2022-10-28T07:02:08.213Z,100439.91
2022-10-28T07:04:36.402Z,100442.31
2022-10-28T07:07:05.799Z,100452.88
2022-10-28T07:09:36.540Z,100449.84
2022-10-28T07:12:05.591Z,100452.50
2022-10-28T07:14:34.844Z,100452.94
2022-10-28T07:17:03.128Z,100451.00
2022-10-28T07:19:31.180Z,100455.00
2022-10-28T07:21:59.437Z,100458.47
2022-10-28T07:24:28.935Z,100459.84
2022-10-28T07:26:57.894Z,100450.03
2022-10-28T07:29:26.220Z,100453.47
2022-10-28T07:31:55.829Z,100450.34
2022-10-28T07:34:26.980Z,100448.28
2022-10-28T07:36:56.442Z,100444.66
2022-10-28T07:39:24.881Z,100449.41
2022-10-28T07:41:54.424Z,100447.94
2022-10-28T07:44:22.496Z,100447.56
2022-10-28T07:46:54.242Z,100451.47
2022-10-28T07:49:25.245Z,100443.22
2022-10-28T07:51:53.381Z,100443.09
2022-10-28T07:54:21.537Z,100435.34
2022-10-28T07:56:49.902Z,100439.31
2022-10-28T07:59:25.760Z,100438.34
2022-10-28T08:01:55.348Z,100430.88
2022-10-28T08:04:23.854Z,100436.16
2022-10-28T08:06:51.938Z,100434.53
2022-10-28T08:09:20.058Z,100440.19
2022-10-28T08:11:48.110Z,100434.09
2022-10-28T08:14:16.343Z,100422.78
2022-10-28T08:16:46.843Z,100435.97
2022-10-28T08:19:15.032Z,100432.06
2022-10-28T08:21:43.025Z,100432.78
2022-10-28T08:24:11.044Z,100437.31
2022-10-28T08:26:39.057Z,100429.78
2022-10-28T08:29:08.169Z,100424.88
2022-10-28T08:31:36.159Z,100433.16
2022-10-28T08:34:06.636Z,100426.53
2022-10-28T08:36:35.261Z,100428.13
2022-10-28T08:39:03.352Z,100425.41
2022-10-28T08:41:37.959Z,100424.91
2022-10-28T08:44:32.089Z,100420.59
2022-10-28T08:47:11.829Z,100425.03
2022-10-28T08:49:45.740Z,100424.50
2022-10-28T08:52:26.245Z,100417.78
2022-10-28T08:54:59.945Z,100425.31
2022-10-28T08:57:35.846Z,100431.25
2022-10-28T09:00:06.490Z,100417.28
2022-10-28T09:02:49.248Z,100423.13
2022-10-28T09:05:23.729Z,100423.44
2022-10-28T09:07:52.378Z,100415.59
2022-10-28T09:10:45.841Z,100420.34
2022-10-28T09:13:20.973Z,100420.34
2022-10-28T09:16:00.030Z,100416.00
2022-10-28T09:18:52.534Z,100417.88
2022-10-28T09:21:27.738Z,100420.91
2022-10-28T09:23:57.945Z,100421.06
2022-10-28T09:26:38.126Z,100415.81
2022-10-28T09:29:21.732Z,100413.81
2022-10-28T09:31:54.893Z,100404.31
2022-10-28T09:34:36.588Z,100400.72
2022-10-28T09:37:14.777Z,100390.56
2022-10-28T09:39:45.344Z,100389.66
2022-10-28T09:42:19.379Z,100384.13
2022-10-28T09:44:51.607Z,100381.63
2022-10-28T09:47:24.141Z,100380.53
2022-10-28T09:49:56.081Z,100377.88
2022-10-28T09:52:30.143Z,100373.91
2022-10-28T09:55:01.149Z,100371.38
2022-10-28T09:57:32.969Z,100369.63
2022-10-28T10:00:01.564Z,100361.59
2022-10-28T10:02:31.969Z,100359.50
2022-10-28T10:05:03.011Z,100356.00
2022-10-28T10:07:37.995Z,100351.19
2022-10-28T10:10:13.090Z,100346.56
2022-10-28T10:12:42.084Z,100348.13
2022-10-28T10:15:17.608Z,100341.72
2022-10-28T10:17:48.328Z,100342.31
2022-10-28T10:20:20.293Z,100341.34
2022-10-28T10:22:50.717Z,100335.00
2022-10-28T10:25:32.701Z,100335.63
2022-10-28T10:28:03.119Z,100330.47
2022-10-28T10:30:34.812Z,100333.69
2022-10-28T10:33:03.639Z,100322.88
2022-10-28T10:35:34.370Z,100326.81
2022-10-28T10:38:06.736Z,100329.19
2022-10-28T10:40:36.477Z,100324.66
2022-10-28T10:43:23.536Z,100321.22
2022-10-28T10:46:01.460Z,100323.38
2022-10-28T10:48:29.961Z,100318.44
2022-10-28T10:50:58.101Z,100307.91
2022-10-28T10:53:29.930Z,100307.00
2022-10-28T10:56:00.704Z,100313.47
2022-10-28T10:58:31.915Z,100308.97
2022-10-28T11:01:02.285Z,100300.97
2022-10-28T11:03:34.963Z,100304.50
2022-10-28T11:06:23.234Z,100297.34
2022-10-28T11:08:58.537Z,100294.13
2022-10-28T11:11:34.855Z,100285.38
2022-10-28T11:14:08.791Z,100281.47
2022-10-28T11:16:48.884Z,100276.47
2022-10-28T11:19:22.307Z,100278.53
2022-10-28T11:22:12.681Z,100275.75
2022-10-28T11:24:52.255Z,100275.75
2022-10-28T11:27:32.897Z,100270.91
2022-10-28T11:30:02.289Z,100273.19
2022-10-28T11:32:54.515Z,100264.44
2022-10-28T11:35:43.979Z,100257.31
2022-10-28T11:38:28.136Z,100259.56
2022-10-28T11:41:11.806Z,100254.38
2022-10-28T11:43:54.378Z,100248.28
2022-10-28T11:46:37.209Z,100251.81
2022-10-28T11:49:31.459Z,100250.00
2022-10-28T11:52:05.802Z,100247.25
2022-10-28T11:54:46.699Z,100247.75
2022-10-28T11:57:18.749Z,100235.63
2022-10-28T12:00:10.206Z,100233.66
2022-10-28T12:03:00.042Z,100232.81
2022-10-28T12:05:35.256Z,100233.19
2022-10-28T12:08:35.078Z,100222.09
2022-10-28T12:11:18.894Z,100229.53
2022-10-28T12:13:58.725Z,100223.16
2022-10-28T12:16:35.208Z,100221.06
2022-10-28T12:19:12.073Z,100224.16
2022-10-28T12:21:47.375Z,100216.69
2022-10-28T12:24:18.390Z,100219.22
2022-10-28T12:26:50.401Z,100215.03
2022-10-28T12:29:24.641Z,100212.72
2022-10-28T12:31:58.281Z,100217.34
2022-10-28T12:34:32.785Z,100226.75
2022-10-28T12:37:03.166Z,100221.84
2022-10-28T12:39:35.265Z,100220.59
2022-10-28T12:42:11.169Z,100225.34
2022-10-28T12:44:41.765Z,100231.38
2022-10-28T12:47:20.381Z,100236.94
2022-10-28T12:49:58.934Z,100229.69
2022-10-28T12:52:39.446Z,100225.28
2022-10-28T12:55:20.104Z,100226.41
2022-10-28T12:57:55.758Z,100228.13
2022-10-28T13:00:28.600Z,100224.16
2022-10-28T13:03:02.913Z,100219.38
2022-10-28T13:05:38.478Z,100221.25
2022-10-28T13:08:42.886Z,100223.53
2022-10-28T13:11:40.210Z,100218.31
2022-10-28T13:14:19.164Z,100204.84
2022-10-28T13:17:06.766Z,100216.66
2022-10-28T13:19:52.893Z,100208.97
2022-10-28T13:22:48.544Z,100206.50
2022-10-28T13:25:41.283Z,100209.75
2022-10-28T13:28:15.656Z,100208.53
2022-10-28T13:30:54.878Z,100200.97
2022-10-28T13:33:26.468Z,100201.06
2022-10-28T13:35:55.636Z,100199.72
2022-10-28T13:38:27.528Z,100207.22
2022-10-28T13:41:30.336Z,100204.69
2022-10-28T13:44:14.513Z,100196.56
2022-10-28T13:47:26.416Z,100196.19
2022-10-28T13:50:38.019Z,100201.41
2022-10-28T13:53:38.648Z,100200.97
2022-10-28T13:56:18.388Z,100195.84
2022-10-28T13:58:53.058Z,100183.38
2022-10-28T14:01:56.509Z,100183.84
2022-10-28T14:04:37.930Z,100183.00
2022-10-28T14:07:21.549Z,100178.28
2022-10-28T14:09:53.459Z,100177.41
2022-10-28T14:12:28.659Z,100174.28
2022-10-28T14:15:01.782Z,100169.78
2022-10-28T14:17:36.672Z,100160.63
2022-10-28T14:20:07.118Z,100163.69
2022-10-28T14:22:37.866Z,100162.66
2022-10-28T14:25:48.228Z,100162.78
2022-10-28T14:28:54.618Z,100162.44
2022-10-28T14:31:49.675Z,100161.63
2022-10-28T14:34:41.103Z,100160.59
2022-10-28T14:37:28.645Z,100161.31
2022-10-28T14:40:30.331Z,100165.84
2022-10-28T14:43:27.822Z,100167.47
2022-10-28T14:46:06.863Z,100159.13
2022-10-28T14:48:50.550Z,100161.41
2022-10-28T14:51:21.670Z,100163.66
2022-10-28T14:53:54.942Z,100155.44
2022-10-28T14:56:28.096Z,100161.28
2022-10-28T14:58:59.980Z,100154.09
2022-10-28T15:01:34.350Z,100161.53
2022-10-28T15:04:07.307Z,100154.03
2022-10-28T15:06:40.652Z,100161.13
2022-10-28T15:09:20.126Z,100157.00
2022-10-28T15:11:53.615Z,100152.16
2022-10-28T15:14:32.003Z,100150.31
2022-10-28T15:17:01.003Z,100158.47
2022-10-28T15:19:30.430Z,100156.59
2022-10-28T15:22:08.175Z,100155.50
2022-10-28T15:24:36.161Z,100158.66
2022-10-28T15:27:05.672Z,100146.81
2022-10-28T15:29:34.067Z,100154.84
2022-10-28T15:32:13.611Z,100158.38
2022-10-28T15:34:42.436Z,100157.72
2022-10-28T15:37:10.846Z,100164.97
2022-10-28T15:39:40.940Z,100157.31
2022-10-28T15:45:16.914Z,100175.06
2022-10-28T15:47:46.402Z,100164.09
2022-10-28T15:50:29.296Z,100168.66
2022-10-28T15:53:22.468Z,100170.19
2022-10-28T15:56:10.490Z,100172.63
2022-10-28T15:58:41.305Z,100169.91
2022-10-28T16:01:28.897Z,100167.72
2022-10-28T16:03:57.250Z,100168.38
2022-10-28T16:06:28.165Z,100169.66
2022-10-28T16:09:18.850Z,100172.03
2022-10-28T16:11:49.528Z,100179.38
2022-10-28T16:14:33.017Z,100171.69
2022-10-28T16:17:15.285Z,100170.25
2022-10-28T16:19:47.576Z,100172.97
2022-10-28T16:22:15.884Z,100182.53
2022-10-28T16:24:43.905Z,100181.03
2022-10-28T16:27:20.444Z,100180.81
2022-10-28T16:29:48.772Z,100177.44
2022-10-28T16:32:23.553Z,100174.41
2022-10-28T16:34:51.557Z,100176.91
2022-10-28T16:37:23.223Z,100184.72
2022-10-28T16:39:51.464Z,100180.81
2022-10-28T16:42:20.555Z,100183.19
2022-10-28T16:44:48.954Z,100186.66
2022-10-28T16:47:20.441Z,100181.81
2022-10-28T16:49:54.142Z,100185.72
2022-10-28T16:52:27.590Z,100192.22
2022-10-28T16:54:56.027Z,100192.69
2022-10-28T16:59:57.332Z,100195.66
2022-10-28T17:02:30.503Z,100196.38
2022-10-28T17:04:59.927Z,100189.47
2022-10-28T17:07:28.930Z,100188.19
2022-10-28T17:09:57.128Z,100196.13
2022-10-28T17:12:27.476Z,100198.44
2022-10-28T17:14:55.478Z,100197.47
2022-10-28T17:17:23.534Z,100196.16
2022-10-28T17:19:52.834Z,100198.97
2022-10-28T17:22:20.778Z,100194.16
2022-10-28T17:24:48.850Z,100191.25
2022-10-28T17:27:17.218Z,100193.75
2022-10-28T17:29:45.965Z,100193.84
2022-10-28T17:32:14.162Z,100190.13
2022-10-28T17:34:42.218Z,100191.06
2022-10-28T17:37:11.651Z,100183.03
2022-10-28T17:39:39.713Z,100188.88
2022-10-28T17:42:07.744Z,100193.88
2022-10-28T17:44:35.863Z,100200.31
2022-10-28T17:47:04.066Z,100197.69
2022-10-28T17:49:34.322Z,100198.88
2022-10-28T17:52:02.365Z,100201.09
2022-10-28T17:54:31.700Z,100198.47
2022-10-28T17:56:59.715Z,100190.13
2022-10-28T17:59:27.754Z,100199.34
2022-10-28T18:01:55.724Z,100194.25
2022-10-28T18:04:26.597Z,100200.25
2022-10-28T18:06:55.937Z,100206.56
2022-10-28T18:09:24.260Z,100206.38
2022-10-28T18:11:53.609Z,100209.34
2022-10-28T18:14:21.879Z,100199.63
2022-10-28T18:16:51.395Z,100204.06
2022-10-28T18:19:19.620Z,100203.34
2022-10-28T18:21:48.003Z,100200.50
2022-10-28T18:24:16.567Z,100195.25
2022-10-28T18:26:45.119Z,100194.53
2022-10-28T18:29:14.501Z,100191.91
2022-10-28T18:31:44.197Z,100194.19
2022-10-28T18:34:12.528Z,100191.63
2022-10-28T18:36:40.615Z,100193.81
2022-10-28T18:39:09.557Z,100195.19
2022-10-28T18:41:42.094Z,100203.97
2022-10-28T18:44:20.148Z,100199.50
2022-10-28T18:46:48.152Z,100210.47
2022-10-28T18:49:16.132Z,100207.63
2022-10-28T18:51:44.142Z,100206.88
2022-10-28T18:54:12.208Z,100213.66
2022-10-28T18:56:42.517Z,100209.94
2022-10-28T18:59:14.046Z,100207.03
2022-10-28T19:01:46.695Z,100213.81
2022-10-28T19:04:15.665Z,100215.47
2022-10-28T19:06:43.775Z,100214.97
2022-10-28T19:09:11.786Z,100226.66
2022-10-28T19:11:39.781Z,100231.03
2022-10-28T19:14:08.459Z,100228.91
2022-10-28T19:16:38.061Z,100235.38
2022-10-28T19:19:07.092Z,100236.50
2022-10-28T19:21:35.441Z,100233.47
2022-10-28T19:24:03.618Z,100236.19
2022-10-28T19:26:32.067Z,100243.22
2022-10-28T19:29:00.413Z,100245.13
2022-10-28T19:31:30.165Z,100243.72
2022-10-28T19:33:59.558Z,100237.50
2022-10-28T19:36:28.868Z,100249.22
2022-10-28T19:38:58.188Z,100251.66
2022-10-28T19:41:28.097Z,100251.16
2022-10-28T19:43:58.755Z,100245.22
2022-10-28T19:46:28.274Z,100253.09
2022-10-28T19:48:57.679Z,100257.19
2022-10-28T19:51:29.301Z,100252.34
2022-10-28T19:53:58.952Z,100252.94
2022-10-28T19:56:28.126Z,100250.31
2022-10-28T19:58:58.139Z,100244.50
2022-10-28T20:01:27.813Z,100254.25
2022-10-28T20:03:56.731Z,100251.84
2022-10-28T20:06:28.296Z,100249.72
2022-10-28T20:08:56.222Z,100256.50
2022-10-28T20:11:28.872Z,100251.94
2022-10-28T20:13:58.208Z,100260.59
2022-10-28T20:16:26.569Z,100264.66
2022-10-28T20:18:55.290Z,100263.34
2022-10-28T20:21:24.873Z,100266.91
2022-10-28T20:23:55.954Z,100259.66
2022-10-28T20:26:26.835Z,100278.81
2022-10-28T20:28:55.405Z,100282.06
2022-10-28T20:31:25.077Z,100272.91
2022-10-28T20:33:54.853Z,100276.44
2022-10-28T20:36:25.153Z,100278.34
2022-10-28T20:38:58.062Z,100278.59
2022-10-28T20:41:27.496Z,100288.59
2022-10-28T20:43:56.087Z,100280.78
2022-10-28T20:46:25.142Z,100281.31
2022-10-28T20:48:54.369Z,100278.59
2022-10-28T20:51:23.065Z,100267.00
2022-10-28T20:53:51.817Z,100275.91
2022-10-28T20:56:23.444Z,100278.38
2022-10-28T20:58:51.953Z,100275.97
2022-10-28T21:01:22.023Z,100280.53
2022-10-28T21:03:50.473Z,100272.72
2022-10-28T21:06:18.676Z,100270.84
2022-10-28T21:08:46.849Z,100264.91
2022-10-28T21:11:16.444Z,100266.03
2022-10-28T21:13:51.143Z,100265.00
2022-10-28T21:16:19.919Z,100256.38
2022-10-28T21:18:48.188Z,100257.72
2022-10-28T21:21:16.299Z,100256.94
2022-10-28T21:23:44.482Z,100258.06
2022-10-28T21:26:14.056Z,100259.72
2022-10-28T21:28:42.510Z,100265.66
2022-10-28T21:31:14.005Z,100249.22
2022-10-28T21:33:43.105Z,100256.78
2022-10-28T21:36:13.716Z,100257.63
2022-10-28T21:38:42.033Z,100263.84
2022-10-28T21:41:12.880Z,100264.41
2022-10-28T21:43:43.103Z,100269.00
2022-10-28T21:46:12.699Z,100260.91
2022-10-28T21:48:41.031Z,100264.94
2022-10-28T21:51:14.565Z,100267.66
2022-10-28T21:53:44.319Z,100263.09
2022-10-28T21:56:17.608Z,100269.31
2022-10-28T21:58:47.602Z,100260.94
2022-10-28T22:01:19.709Z,100266.31
2022-10-28T22:03:48.163Z,100265.50
2022-10-28T22:06:16.543Z,100270.66
2022-10-28T22:08:44.934Z,100271.22
2022-10-28T22:11:15.752Z,100265.31
2022-10-28T22:13:44.040Z,100272.34
2022-10-28T22:16:14.501Z,100267.22
2022-10-28T22:18:44.364Z,100268.06
2022-10-28T22:21:14.349Z,100265.88
2022-10-28T22:23:42.892Z,100271.00
2022-10-28T22:26:12.845Z,100266.19
2022-10-28T22:28:41.297Z,100267.28
2022-10-28T22:31:11.263Z,100265.13
2022-10-28T22:33:39.767Z,100255.69
2022-10-28T22:36:11.294Z,100255.41
2022-10-28T22:38:39.698Z,100256.81
2022-10-28T22:41:09.393Z,100255.16
2022-10-28T22:43:37.496Z,100259.50
2022-10-28T22:46:06.360Z,100262.47
2022-10-28T22:48:34.881Z,100266.50
2022-10-28T22:51:03.110Z,100271.63
2022-10-28T22:53:32.741Z,100264.91
2022-10-28T22:56:01.008Z,100262.75
2022-10-28T22:58:29.363Z,100265.69
2022-10-28T23:01:06.159Z,100264.34
2022-10-28T23:03:37.274Z,100269.75
2022-10-28T23:06:05.920Z,100269.75
2022-10-28T23:08:35.700Z,100269.22
2022-10-28T23:11:04.041Z,100271.94
2022-10-28T23:13:32.147Z,100262.25
2022-10-28T23:16:04.060Z,100271.94
2022-10-28T23:18:32.069Z,100271.13
2022-10-28T23:21:05.333Z,100270.88
2022-10-28T23:23:33.468Z,100273.28
2022-10-28T23:26:02.900Z,100266.53
2022-10-28T23:28:30.930Z,100271.94
2022-10-28T23:31:01.808Z,100274.09
2022-10-28T23:33:30.751Z,100266.56
2022-10-28T23:35:59.697Z,100275.19
2022-10-28T23:38:28.225Z,100275.69
2022-10-28T23:40:57.873Z,100269.50
2022-10-28T23:43:27.912Z,100270.59
2022-10-28T23:45:56.669Z,100275.69
2022-10-28T23:48:25.875Z,100271.91
2022-10-28T23:50:54.102Z,100269.50
2022-10-28T23:53:22.769Z,100270.59
2022-10-28T23:55:52.062Z,100265.47
2022-10-28T23:58:22.074Z,100261.69
